createdAt,value
2022-11-05T00:02:27.344Z,6.20
2022-11-05T00:07:03.410Z,6.20
2022-11-05T00:11:40.756Z,6.10
2022-11-05T00:16:16.507Z,6.20
2022-11-05T00:20:33.812Z,6.20
2022-11-05T00:25:09.627Z,6.20
2022-11-05T00:29:26.873Z,6.30
2022-11-05T00:33:44.207Z,6.30
2022-11-05T00:38:01.511Z,6.40
2022-11-05T00:42:37.305Z,6.50
2022-11-05T00:47:14.576Z,6.50
2022-11-05T00:51:31.890Z,6.70
2022-11-05T00:55:49.200Z,6.80
2022-11-05T01:00:07.070Z,7.00
2022-11-05T01:04:24.369Z,7.10
2022-11-05T01:08:43.676Z,7.20
2022-11-05T01:13:01.041Z,7.20
2022-11-05T01:17:18.369Z,7.40
2022-11-05T01:21:36.200Z,7.40
2022-11-05T01:25:53.491Z,7.50
2022-11-05T01:30:11.467Z,7.50
2022-11-05T01:34:28.928Z,7.50
2022-11-05T01:38:46.181Z,7.60
2022-11-05T01:43:03.516Z,7.70
2022-11-05T01:47:32.424Z,7.70
2022-11-05T01:51:51.332Z,7.80
2022-11-05T01:56:14.785Z,7.90
2022-11-05T02:00:32.061Z,7.90
2022-11-05T02:04:54.761Z,7.90
2022-11-05T02:09:23.212Z,8.00
2022-11-05T02:13:40.848Z,8.00
2022-11-05T02:18:20.626Z,8.00
2022-11-05T02:23:01.757Z,8.00
2022-11-05T02:27:49.350Z,8.00
2022-11-05T02:32:25.231Z,8.00
2022-11-05T02:36:50.158Z,8.00
2022-11-05T02:41:30.261Z,8.00
2022-11-05T02:45:53.498Z,8.00
2022-11-05T02:50:46.665Z,8.00
2022-11-05T02:55:20.704Z,8.10
2022-11-05T02:59:38.027Z,8.10
2022-11-05T03:04:00.632Z,8.20
2022-11-05T03:08:43.048Z,8.20
2022-11-05T03:13:14.340Z,8.20
2022-11-05T03:17:56.512Z,8.10
2022-11-05T03:22:28.599Z,8.20
2022-11-05T03:26:51.738Z,8.20
2022-11-05T03:31:13.224Z,8.30
2022-11-05T03:35:35.851Z,8.30
2022-11-05T03:39:58.621Z,8.30
2022-11-05T03:44:21.958Z,8.30
2022-11-05T03:48:44.712Z,8.30
2022-11-05T03:53:12.819Z,8.20
2022-11-05T03:57:34.434Z,8.10
2022-11-05T04:01:51.724Z,8.10
2022-11-05T04:06:29.093Z,8.10
2022-11-05T04:11:05.058Z,8.10
2022-11-05T04:15:22.259Z,8.10
2022-11-05T04:20:00.122Z,8.10
2022-11-05T04:24:17.379Z,8.10
2022-11-05T04:28:53.308Z,7.90
2022-11-05T04:33:13.205Z,8.00
2022-11-05T04:37:30.699Z,7.90
2022-11-05T04:41:48.766Z,7.90
2022-11-05T04:46:06.110Z,7.80
2022-11-05T04:50:23.750Z,7.60
2022-11-05T04:54:40.943Z,7.60
2022-11-05T04:58:58.231Z,7.50
2022-11-05T05:03:15.489Z,7.60
2022-11-05T05:07:33.950Z,7.50
2022-11-05T05:11:51.203Z,7.40
2022-11-05T05:16:11.747Z,7.40
2022-11-05T05:20:47.630Z,7.50
2022-11-05T05:25:05.025Z,7.50
2022-11-05T05:29:22.274Z,7.70
2022-11-05T05:33:39.534Z,7.60
2022-11-05T05:37:56.836Z,7.50
2022-11-05T05:42:14.523Z,7.40
2022-11-05T05:46:31.731Z,7.50
2022-11-05T05:50:48.967Z,7.30
2022-11-05T05:55:06.593Z,7.30
2022-11-05T05:59:24.380Z,7.20
2022-11-05T06:03:41.679Z,7.20
2022-11-05T06:07:58.930Z,7.20
2022-11-05T06:12:16.161Z,7.20
2022-11-05T06:16:35.782Z,7.30
2022-11-05T06:20:52.995Z,7.40
2022-11-05T06:25:10.684Z,7.40
2022-11-05T06:29:28.049Z,7.50
2022-11-05T06:33:45.332Z,7.50
2022-11-05T06:38:02.657Z,7.60
2022-11-05T06:42:20.078Z,7.70
2022-11-05T06:46:37.296Z,7.70
2022-11-05T06:50:54.991Z,7.80
2022-11-05T06:55:12.150Z,7.80
2022-11-05T06:59:29.361Z,7.70
2022-11-05T07:03:48.945Z,7.60
2022-11-05T07:08:06.620Z,7.80
2022-11-05T07:12:23.881Z,7.80
2022-11-05T07:16:41.277Z,7.90
2022-11-05T07:30:24.363Z,8.20
2022-11-05T07:34:41.664Z,8.30
2022-11-05T07:39:00.506Z,8.40
2022-11-05T07:43:17.946Z,8.60
2022-11-05T07:47:37.868Z,8.60
2022-11-05T07:51:55.038Z,8.60
2022-11-05T07:56:12.918Z,8.70
2022-11-05T08:00:30.612Z,8.80
2022-11-05T08:04:47.793Z,8.60
2022-11-05T08:09:05.342Z,8.70
2022-11-05T08:13:22.558Z,8.70
2022-11-05T08:17:39.853Z,8.80
2022-11-05T08:21:57.071Z,8.90
2022-11-05T08:26:14.318Z,9.20
2022-11-05T08:30:32.756Z,9.40
2022-11-05T08:34:50.067Z,9.40
2022-11-05T08:39:07.434Z,9.60
2022-11-05T08:43:25.252Z,9.60
2022-11-05T08:47:42.447Z,9.70
2022-11-05T08:51:59.661Z,9.40
2022-11-05T08:56:17.105Z,9.50
2022-11-05T09:00:36.446Z,9.20
2022-11-05T09:04:53.631Z,9.30
2022-11-05T09:09:10.852Z,9.40
2022-11-05T09:13:28.222Z,9.70
2022-11-05T09:17:45.447Z,10.10
2022-11-05T09:22:02.609Z,10.30
2022-11-05T09:26:19.854Z,10.30
2022-11-05T09:30:41.758Z,10.30
2022-11-05T09:35:01.119Z,10.50
2022-11-05T09:39:18.338Z,10.40
2022-11-05T09:43:47.351Z,10.40
2022-11-05T09:48:12.180Z,10.10
2022-11-05T09:52:31.858Z,9.80
2022-11-05T09:56:49.248Z,10.10
2022-11-05T10:01:14.308Z,10.80
2022-11-05T10:05:33.811Z,11.40
2022-11-05T10:10:01.867Z,11.60
2022-11-05T10:14:27.279Z,11.60
2022-11-05T10:18:50.436Z,11.30
2022-11-05T10:23:15.023Z,11.20
2022-11-05T10:27:36.462Z,12.60
2022-11-05T10:31:55.147Z,12.50
2022-11-05T10:36:20.831Z,13.60
2022-11-05T10:41:05.302Z,12.40
2022-11-05T10:45:34.965Z,11.60
2022-11-05T10:49:52.389Z,11.10
2022-11-05T10:54:18.036Z,11.60
2022-11-05T10:58:38.949Z,11.50
2022-11-05T11:03:01.664Z,11.30
2022-11-05T11:07:24.557Z,11.60
2022-11-05T11:11:43.119Z,11.20
2022-11-05T11:16:21.612Z,10.90
2022-11-05T11:20:44.945Z,10.70
2022-11-05T11:25:23.127Z,10.60
2022-11-05T11:29:48.979Z,10.70
2022-11-05T11:34:17.133Z,11.00
2022-11-05T11:38:36.503Z,11.90
2022-11-05T11:43:00.344Z,11.90
2022-11-05T11:47:20.910Z,11.80
2022-11-05T11:51:40.591Z,11.40
2022-11-05T11:56:01.183Z,11.30
2022-11-05T12:00:20.684Z,11.60
2022-11-05T12:04:58.897Z,11.40
2022-11-05T12:09:40.693Z,11.30
2022-11-05T12:14:26.863Z,10.90
2022-11-05T12:18:52.799Z,10.60
2022-11-05T12:23:40.933Z,10.40
2022-11-05T12:28:19.502Z,10.50
2022-11-05T12:33:01.340Z,10.70
2022-11-05T12:37:53.324Z,11.00
2022-11-05T12:42:23.916Z,11.20
2022-11-05T12:46:51.474Z,11.50
2022-11-05T12:51:32.749Z,11.70
2022-11-05T12:55:51.817Z,12.00
2022-11-05T13:00:18.523Z,12.00
2022-11-05T13:04:44.006Z,11.60
2022-11-05T13:09:23.422Z,11.40
2022-11-05T13:14:05.638Z,11.40
2022-11-05T13:18:37.835Z,11.30
2022-11-05T13:23:16.287Z,11.60
2022-11-05T13:28:05.290Z,11.90
2022-11-05T13:32:36.932Z,11.70
2022-11-05T13:37:22.637Z,11.40
2022-11-05T13:42:04.296Z,11.40
2022-11-05T13:46:43.007Z,11.40
2022-11-05T13:51:42.942Z,11.50
2022-11-05T13:56:11.345Z,11.50
2022-11-05T14:00:32.983Z,11.70
2022-11-05T14:05:00.514Z,11.80
2022-11-05T14:09:26.431Z,11.80
2022-11-05T14:13:45.668Z,11.90
2022-11-05T14:18:25.908Z,12.00
2022-11-05T14:22:43.272Z,11.70
2022-11-05T14:27:00.419Z,11.40
2022-11-05T14:31:47.400Z,11.20
2022-11-05T14:36:21.911Z,11.10
2022-11-05T14:40:42.387Z,11.00
2022-11-05T14:45:02.000Z,11.20
2022-11-05T14:49:23.689Z,11.20
2022-11-05T14:53:41.072Z,11.10
2022-11-05T14:57:58.251Z,11.00
2022-11-05T15:02:18.301Z,10.80
2022-11-05T15:06:36.682Z,10.70
2022-11-05T15:10:58.124Z,10.60
2022-11-05T15:15:30.375Z,10.40
2022-11-05T15:19:48.121Z,10.20
2022-11-05T15:24:05.992Z,9.90
2022-11-05T15:28:44.435Z,9.40
2022-11-05T15:33:18.844Z,9.10
2022-11-05T15:37:36.088Z,8.90
2022-11-05T15:41:53.420Z,8.40
2022-11-05T15:46:21.885Z,8.10
2022-11-05T15:50:39.233Z,7.90
2022-11-05T15:55:20.125Z,7.80
2022-11-05T15:59:37.530Z,7.50
2022-11-05T16:03:58.077Z,7.40
2022-11-05T16:08:20.263Z,7.30
2022-11-05T16:12:37.749Z,7.10
2022-11-05T16:16:55.048Z,6.90
2022-11-05T16:21:18.591Z,6.80
2022-11-05T16:25:43.551Z,6.80
2022-11-05T16:30:00.815Z,6.70
2022-11-05T16:34:45.503Z,6.60
2022-11-05T16:39:02.779Z,6.50
2022-11-05T16:43:23.623Z,6.40
2022-11-05T16:47:41.419Z,6.30
2022-11-05T16:51:59.726Z,6.20
2022-11-05T16:56:21.513Z,6.10
2022-11-05T17:00:39.287Z,5.90
2022-11-05T17:04:56.574Z,5.80
2022-11-05T17:09:13.850Z,5.70
2022-11-05T17:13:31.489Z,5.60
2022-11-05T17:17:49.444Z,5.50
2022-11-05T17:22:06.659Z,5.40
2022-11-05T17:26:24.281Z,5.20
2022-11-05T17:30:42.147Z,5.20
2022-11-05T17:34:59.478Z,5.20
2022-11-05T17:39:16.699Z,5.10
2022-11-05T17:43:33.885Z,5.00
2022-11-05T17:47:51.095Z,4.80
2022-11-05T17:52:08.299Z,4.70
2022-11-05T17:56:34.094Z,4.60
2022-11-05T18:00:52.560Z,4.60
2022-11-05T18:05:10.251Z,4.60
2022-11-05T18:09:27.482Z,4.60
2022-11-05T18:13:44.711Z,4.50
2022-11-05T18:18:01.975Z,4.40
2022-11-05T18:22:19.552Z,4.30
2022-11-05T18:26:36.806Z,4.20
2022-11-05T18:30:54.015Z,4.20
2022-11-05T18:35:13.321Z,4.10
2022-11-05T18:39:30.567Z,4.00
2022-11-05T18:43:48.134Z,4.00
2022-11-05T18:48:05.622Z,3.90
2022-11-05T18:52:22.926Z,4.00
2022-11-05T18:56:45.254Z,4.10
2022-11-05T19:01:06.557Z,4.10
2022-11-05T19:05:29.335Z,4.00
2022-11-05T19:09:47.090Z,4.10
2022-11-05T19:14:04.393Z,4.10
2022-11-05T19:18:21.591Z,3.90
2022-11-05T19:22:38.859Z,3.90
2022-11-05T19:26:56.215Z,3.90
2022-11-05T19:31:19.356Z,3.80
2022-11-05T19:35:41.396Z,3.80
2022-11-05T19:39:58.804Z,3.80
2022-11-05T19:44:16.033Z,3.70
2022-11-05T19:48:33.702Z,3.80
2022-11-05T19:52:50.958Z,3.70
2022-11-05T19:57:08.177Z,3.70
2022-11-05T20:01:27.567Z,3.80
2022-11-05T20:05:44.938Z,3.70
2022-11-05T20:10:02.193Z,3.60
2022-11-05T20:14:19.720Z,3.50
2022-11-05T20:18:36.894Z,3.50
2022-11-05T20:22:54.219Z,3.50
2022-11-05T20:27:11.439Z,3.50
2022-11-05T20:31:28.648Z,3.60
2022-11-05T20:35:45.924Z,3.60
2022-11-05T20:40:03.344Z,3.60
2022-11-05T20:44:20.619Z,3.50
2022-11-05T20:48:37.905Z,3.50
2022-11-05T20:52:55.172Z,3.60
2022-11-05T20:57:12.357Z,3.90
2022-11-05T21:01:32.123Z,4.00
2022-11-05T21:05:54.436Z,4.20
2022-11-05T21:10:11.942Z,4.20
2022-11-05T21:14:29.146Z,4.40
2022-11-05T21:18:47.644Z,4.50
2022-11-05T21:23:04.859Z,4.50
2022-11-05T21:27:22.452Z,4.50
2022-11-05T21:31:39.821Z,4.60
2022-11-05T21:35:57.407Z,4.70
2022-11-05T21:40:15.158Z,4.80
2022-11-05T21:44:32.438Z,4.80
2022-11-05T21:48:49.662Z,4.80
2022-11-05T21:53:27.367Z,4.70
2022-11-05T21:58:03.294Z,4.60
2022-11-05T22:02:25.535Z,4.60
2022-11-05T22:06:42.916Z,4.50
2022-11-05T22:11:03.750Z,4.30
2022-11-05T22:15:20.979Z,4.30
2022-11-05T22:19:38.477Z,4.40
2022-11-05T22:23:55.703Z,4.50
2022-11-05T22:28:13.235Z,4.60
2022-11-05T22:32:30.752Z,4.70
2022-11-05T22:36:47.962Z,4.70
2022-11-05T22:41:08.539Z,4.40
2022-11-05T22:45:25.760Z,4.20
2022-11-05T22:49:43.169Z,4.40
2022-11-05T22:54:00.910Z,4.40
2022-11-05T22:58:18.098Z,4.20
2022-11-05T23:02:35.436Z,4.00
2022-11-05T23:07:11.400Z,4.00
2022-11-05T23:11:40.771Z,3.90
2022-11-05T23:16:16.582Z,4.00
2022-11-05T23:20:52.678Z,4.10
2022-11-05T23:25:13.123Z,4.60
2022-11-05T23:29:30.652Z,5.20
2022-11-05T23:33:47.852Z,5.20
2022-11-05T23:38:23.700Z,5.40
2022-11-05T23:43:00.809Z,5.30
2022-11-05T23:47:36.846Z,5.20
2022-11-05T23:51:54.052Z,5.20
2022-11-05T23:56:14.581Z,5.30
